sensor_id;sensor_type;location;lat;lon;timestamp;P1;durP1;ratioP1;P2;durP2;ratioP2
43696;SDS011;29301;47.620;19.560;2023-04-25T00:01:13;0.70;;;0.50;;
43696;SDS011;29301;47.620;19.560;2023-04-25T00:03:39;0.70;;;0.50;;
43696;SDS011;29301;47.620;19.560;2023-04-25T00:06:05;0.70;;;0.47;;
43696;SDS011;29301;47.620;19.560;2023-04-25T00:08:31;0.70;;;0.40;;
43696;SDS011;29301;47.620;19.560;2023-04-25T00:10:58;0.60;;;0.40;;
43696;SDS011;29301;47.620;19.560;2023-04-25T00:13:24;0.60;;;0.40;;
43696;SDS011;29301;47.620;19.560;2023-04-25T00:15:51;0.63;;;0.47;;
43696;SDS011;29301;47.620;19.560;2023-04-25T00:18:18;0.60;;;0.40;;
43696;SDS011;29301;47.620;19.560;2023-04-25T00:20:45;0.60;;;0.40;;
43696;SDS011;29301;47.620;19.560;2023-04-25T00:23:11;0.63;;;0.40;;
43696;SDS011;29301;47.620;19.560;2023-04-25T00:25:43;0.68;;;0.40;;
43696;SDS011;29301;47.620;19.560;2023-04-25T00:28:12;0.60;;;0.40;;
43696;SDS011;29301;47.620;19.560;2023-04-25T00:30:38;0.70;;;0.40;;
43696;SDS011;29301;47.620;19.560;2023-04-25T00:33:05;0.60;;;0.40;;
43696;SDS011;29301;47.620;19.560;2023-04-25T00:35:30;0.60;;;0.40;;
43696;SDS011;29301;47.620;19.560;2023-04-25T00:37:56;0.65;;;0.40;;
43696;SDS011;29301;47.620;19.560;2023-04-25T00:40:22;0.60;;;0.40;;
43696;SDS011;29301;47.620;19.560;2023-04-25T00:42:48;0.70;;;0.43;;
43696;SDS011;29301;47.620;19.560;2023-04-25T00:45:14;0.60;;;0.40;;
43696;SDS011;29301;47.620;19.560;2023-04-25T00:47:41;0.70;;;0.47;;
43696;SDS011;29301;47.620;19.560;2023-04-25T00:50:07;0.70;;;0.50;;
43696;SDS011;29301;47.620;19.560;2023-04-25T00:52:33;0.70;;;0.50;;
43696;SDS011;29301;47.620;19.560;2023-04-25T00:54:59;0.70;;;0.50;;
43696;SDS011;29301;47.620;19.560;2023-04-25T00:57:25;0.70;;;0.50;;
43696;SDS011;29301;47.620;19.560;2023-04-25T00:59:51;0.70;;;0.50;;
43696;SDS011;29301;47.620;19.560;2023-04-25T01:02:18;0.65;;;0.40;;
43696;SDS011;29301;47.620;19.560;2023-04-25T01:04:45;0.70;;;0.50;;
43696;SDS011;29301;47.620;19.560;2023-04-25T01:07:12;0.70;;;0.50;;
43696;SDS011;29301;47.620;19.560;2023-04-25T01:09:38;0.60;;;0.40;;
43696;SDS011;29301;47.620;19.560;2023-04-25T01:12:04;0.60;;;0.40;;
43696;SDS011;29301;47.620;19.560;2023-04-25T01:14:30;0.60;;;0.40;;
43696;SDS011;29301;47.620;19.560;2023-04-25T01:16:56;0.60;;;0.40;;
43696;SDS011;29301;47.620;19.560;2023-04-25T01:19:23;0.60;;;0.40;;
43696;SDS011;29301;47.620;19.560;2023-04-25T01:21:49;0.70;;;0.40;;
43696;SDS011;29301;47.620;19.560;2023-04-25T01:24:15;0.60;;;0.40;;
43696;SDS011;29301;47.620;19.560;2023-04-25T01:26:42;0.60;;;0.40;;
43696;SDS011;29301;47.620;19.560;2023-04-25T01:29:17;0.70;;;0.50;;
43696;SDS011;29301;47.620;19.560;2023-04-25T01:31:46;0.70;;;0.50;;
43696;SDS011;29301;47.620;19.560;2023-04-25T01:34:12;0.70;;;0.40;;
43696;SDS011;29301;47.620;19.560;2023-04-25T01:36:38;0.63;;;0.40;;
43696;SDS011;29301;47.620;19.560;2023-04-25T01:39:05;0.70;;;0.50;;
43696;SDS011;29301;47.620;19.560;2023-04-25T01:41:31;0.80;;;0.50;;
43696;SDS011;29301;47.620;19.560;2023-04-25T01:43:57;0.75;;;0.50;;
43696;SDS011;29301;47.620;19.560;2023-04-25T01:46:23;0.60;;;0.40;;
43696;SDS011;29301;47.620;19.560;2023-04-25T01:48:49;0.68;;;0.40;;
43696;SDS011;29301;47.620;19.560;2023-04-25T01:51:14;0.65;;;0.43;;
43696;SDS011;29301;47.620;19.560;2023-04-25T01:53:40;0.70;;;0.40;;
43696;SDS011;29301;47.620;19.560;2023-04-25T01:56:07;0.70;;;0.40;;
43696;SDS011;29301;47.620;19.560;2023-04-25T01:58:33;0.70;;;0.40;;
43696;SDS011;29301;47.620;19.560;2023-04-25T02:00:58;0.68;;;0.40;;
43696;SDS011;29301;47.620;19.560;2023-04-25T02:03:24;0.70;;;0.50;;
43696;SDS011;29301;47.620;19.560;2023-04-25T02:05:50;0.70;;;0.40;;
43696;SDS011;29301;47.620;19.560;2023-04-25T02:08:16;0.70;;;0.50;;
43696;SDS011;29301;47.620;19.560;2023-04-25T02:10:42;0.70;;;0.40;;
43696;SDS011;29301;47.620;19.560;2023-04-25T02:13:08;0.80;;;0.50;;
43696;SDS011;29301;47.620;19.560;2023-04-25T02:15:34;0.70;;;0.50;;
43696;SDS011;29301;47.620;19.560;2023-04-25T02:17:59;0.70;;;0.50;;
43696;SDS011;29301;47.620;19.560;2023-04-25T02:20:25;0.70;;;0.47;;
43696;SDS011;29301;47.620;19.560;2023-04-25T02:22:52;0.70;;;0.50;;
43696;SDS011;29301;47.620;19.560;2023-04-25T02:25:18;0.70;;;0.50;;
43696;SDS011;29301;47.620;19.560;2023-04-25T02:27:45;0.70;;;0.50;;
43696;SDS011;29301;47.620;19.560;2023-04-25T02:30:12;0.70;;;0.50;;
43696;SDS011;29301;47.620;19.560;2023-04-25T02:32:38;0.70;;;0.50;;
43696;SDS011;29301;47.620;19.560;2023-04-25T02:35:05;0.70;;;0.50;;
43696;SDS011;29301;47.620;19.560;2023-04-25T02:37:32;0.60;;;0.40;;
43696;SDS011;29301;47.620;19.560;2023-04-25T02:39:58;0.65;;;0.40;;
43696;SDS011;29301;47.620;19.560;2023-04-25T02:42:24;0.70;;;0.50;;
43696;SDS011;29301;47.620;19.560;2023-04-25T02:44:50;0.70;;;0.50;;
43696;SDS011;29301;47.620;19.560;2023-04-25T02:47:16;0.70;;;0.50;;
43696;SDS011;29301;47.620;19.560;2023-04-25T02:49:42;0.70;;;0.50;;
43696;SDS011;29301;47.620;19.560;2023-04-25T02:52:07;0.75;;;0.50;;
43696;SDS011;29301;47.620;19.560;2023-04-25T02:54:33;0.70;;;0.50;;
43696;SDS011;29301;47.620;19.560;2023-04-25T02:56:59;0.70;;;0.50;;
43696;SDS011;29301;47.620;19.560;2023-04-25T02:59:26;0.70;;;0.50;;
43696;SDS011;29301;47.620;19.560;2023-04-25T03:01:51;0.80;;;0.50;;
43696;SDS011;29301;47.620;19.560;2023-04-25T03:04:17;0.70;;;0.50;;
43696;SDS011;29301;47.620;19.560;2023-04-25T03:06:44;0.70;;;0.50;;
43696;SDS011;29301;47.620;19.560;2023-04-25T03:09:10;0.70;;;0.50;;
43696;SDS011;29301;47.620;19.560;2023-04-25T03:11:36;0.70;;;0.50;;
43696;SDS011;29301;47.620;19.560;2023-04-25T03:14:03;0.80;;;0.50;;
43696;SDS011;29301;47.620;19.560;2023-04-25T03:16:29;0.70;;;0.50;;
43696;SDS011;29301;47.620;19.560;2023-04-25T03:18:55;0.70;;;0.50;;
43696;SDS011;29301;47.620;19.560;2023-04-25T03:21:21;0.70;;;0.40;;
43696;SDS011;29301;47.620;19.560;2023-04-25T03:23:47;0.70;;;0.40;;
43696;SDS011;29301;47.620;19.560;2023-04-25T03:26:13;0.70;;;0.40;;
43696;SDS011;29301;47.620;19.560;2023-04-25T03:28:39;0.70;;;0.50;;
43696;SDS011;29301;47.620;19.560;2023-04-25T03:31:05;0.70;;;0.50;;
43696;SDS011;29301;47.620;19.560;2023-04-25T03:33:31;0.80;;;0.50;;
43696;SDS011;29301;47.620;19.560;2023-04-25T03:35:56;0.70;;;0.40;;
43696;SDS011;29301;47.620;19.560;2023-04-25T03:38:22;0.70;;;0.50;;
43696;SDS011;29301;47.620;19.560;2023-04-25T03:40:48;0.70;;;0.50;;
43696;SDS011;29301;47.620;19.560;2023-04-25T03:43:15;0.70;;;0.50;;
43696;SDS011;29301;47.620;19.560;2023-04-25T03:45:41;0.70;;;0.40;;
43696;SDS011;29301;47.620;19.560;2023-04-25T03:48:07;0.80;;;0.50;;
43696;SDS011;29301;47.620;19.560;2023-04-25T03:50:33;0.70;;;0.50;;
43696;SDS011;29301;47.620;19.560;2023-04-25T03:52:59;0.70;;;0.50;;
43696;SDS011;29301;47.620;19.560;2023-04-25T03:55:24;0.70;;;0.50;;
43696;SDS011;29301;47.620;19.560;2023-04-25T03:57:50;0.60;;;0.40;;
43696;SDS011;29301;47.620;19.560;2023-04-25T04:00:16;0.70;;;0.50;;
43696;SDS011;29301;47.620;19.560;2023-04-25T04:02:42;0.70;;;0.50;;
43696;SDS011;29301;47.620;19.560;2023-04-25T04:05:07;0.70;;;0.50;;
43696;SDS011;29301;47.620;19.560;2023-04-25T04:07:34;0.77;;;0.50;;
43696;SDS011;29301;47.620;19.560;2023-04-25T04:10:05;0.70;;;0.40;;
43696;SDS011;29301;47.620;19.560;2023-04-25T04:12:37;0.70;;;0.50;;
43696;SDS011;29301;47.620;19.560;2023-04-25T04:15:06;0.80;;;0.50;;
43696;SDS011;29301;47.620;19.560;2023-04-25T04:17:32;0.70;;;0.40;;
43696;SDS011;29301;47.620;19.560;2023-04-25T04:19:59;0.70;;;0.50;;
43696;SDS011;29301;47.620;19.560;2023-04-25T04:22:25;0.70;;;0.47;;
43696;SDS011;29301;47.620;19.560;2023-04-25T04:24:50;0.80;;;0.50;;
43696;SDS011;29301;47.620;19.560;2023-04-25T04:27:19;0.70;;;0.50;;
43696;SDS011;29301;47.620;19.560;2023-04-25T04:29:46;0.70;;;0.50;;
43696;SDS011;29301;47.620;19.560;2023-04-25T04:32:13;0.70;;;0.50;;
43696;SDS011;29301;47.620;19.560;2023-04-25T04:34:39;0.70;;;0.50;;
43696;SDS011;29301;47.620;19.560;2023-04-25T04:37:06;0.70;;;0.50;;
43696;SDS011;29301;47.620;19.560;2023-04-25T04:39:32;0.60;;;0.50;;
43696;SDS011;29301;47.620;19.560;2023-04-25T04:41:59;0.70;;;0.50;;
43696;SDS011;29301;47.620;19.560;2023-04-25T04:44:26;0.70;;;0.50;;
43696;SDS011;29301;47.620;19.560;2023-04-25T04:46:53;0.70;;;0.50;;
43696;SDS011;29301;47.620;19.560;2023-04-25T04:49:19;0.70;;;0.50;;
43696;SDS011;29301;47.620;19.560;2023-04-25T04:51:45;0.70;;;0.50;;
43696;SDS011;29301;47.620;19.560;2023-04-25T04:54:12;0.70;;;0.50;;
43696;SDS011;29301;47.620;19.560;2023-04-25T04:56:38;0.70;;;0.50;;
43696;SDS011;29301;47.620;19.560;2023-04-25T04:59:03;0.80;;;0.50;;
43696;SDS011;29301;47.620;19.560;2023-04-25T05:01:29;0.70;;;0.50;;
43696;SDS011;29301;47.620;19.560;2023-04-25T05:03:55;0.70;;;0.50;;
43696;SDS011;29301;47.620;19.560;2023-04-25T05:06:25;0.80;;;0.50;;
43696;SDS011;29301;47.620;19.560;2023-04-25T05:08:52;0.80;;;0.60;;
43696;SDS011;29301;47.620;19.560;2023-04-25T05:11:18;0.70;;;0.50;;
43696;SDS011;29301;47.620;19.560;2023-04-25T05:13:44;0.70;;;0.50;;
43696;SDS011;29301;47.620;19.560;2023-04-25T05:16:11;0.70;;;0.50;;
43696;SDS011;29301;47.620;19.560;2023-04-25T05:18:37;0.80;;;0.50;;
43696;SDS011;29301;47.620;19.560;2023-04-25T05:21:04;0.80;;;0.60;;
43696;SDS011;29301;47.620;19.560;2023-04-25T05:23:30;0.70;;;0.50;;
43696;SDS011;29301;47.620;19.560;2023-04-25T05:25:57;0.73;;;0.50;;
43696;SDS011;29301;47.620;19.560;2023-04-25T06:45:36;0.70;;;0.50;;
43696;SDS011;29301;47.620;19.560;2023-04-25T06:48:01;0.70;;;0.50;;
43696;SDS011;29301;47.620;19.560;2023-04-25T06:50:27;0.77;;;0.50;;
43696;SDS011;29301;47.620;19.560;2023-04-25T06:52:53;0.70;;;0.50;;
43696;SDS011;29301;47.620;19.560;2023-04-25T06:55:18;0.70;;;0.50;;
43696;SDS011;29301;47.620;19.560;2023-04-25T06:57:44;0.70;;;0.50;;
43696;SDS011;29301;47.620;19.560;2023-04-25T07:00:10;0.70;;;0.50;;
43696;SDS011;29301;47.620;19.560;2023-04-25T07:02:36;0.70;;;0.50;;
43696;SDS011;29301;47.620;19.560;2023-04-25T07:05:02;0.60;;;0.40;;
43696;SDS011;29301;47.620;19.560;2023-04-25T07:07:29;0.70;;;0.50;;
43696;SDS011;29301;47.620;19.560;2023-04-25T07:09:55;0.68;;;0.50;;
43696;SDS011;29301;47.620;19.560;2023-04-25T07:12:21;0.70;;;0.40;;
43696;SDS011;29301;47.620;19.560;2023-04-25T07:14:47;0.80;;;0.57;;
43696;SDS011;29301;47.620;19.560;2023-04-25T07:17:13;0.70;;;0.50;;
43696;SDS011;29301;47.620;19.560;2023-04-25T07:19:38;0.70;;;0.50;;
43696;SDS011;29301;47.620;19.560;2023-04-25T07:22:05;0.70;;;0.50;;
43696;SDS011;29301;47.620;19.560;2023-04-25T07:24:31;0.70;;;0.50;;
43696;SDS011;29301;47.620;19.560;2023-04-25T07:26:57;0.70;;;0.50;;
43696;SDS011;29301;47.620;19.560;2023-04-25T07:29:23;0.70;;;0.50;;
43696;SDS011;29301;47.620;19.560;2023-04-25T07:31:49;0.70;;;0.50;;
43696;SDS011;29301;47.620;19.560;2023-04-25T07:34:15;0.70;;;0.50;;
43696;SDS011;29301;47.620;19.560;2023-04-25T07:36:41;0.80;;;0.57;;
43696;SDS011;29301;47.620;19.560;2023-04-25T07:39:06;0.70;;;0.50;;
43696;SDS011;29301;47.620;19.560;2023-04-25T07:41:34;0.70;;;0.50;;
43696;SDS011;29301;47.620;19.560;2023-04-25T07:43:59;0.70;;;0.50;;
43696;SDS011;29301;47.620;19.560;2023-04-25T07:46:25;0.80;;;0.50;;
43696;SDS011;29301;47.620;19.560;2023-04-25T07:48:51;0.70;;;0.50;;
43696;SDS011;29301;47.620;19.560;2023-04-25T07:51:17;0.70;;;0.50;;
43696;SDS011;29301;47.620;19.560;2023-04-25T07:53:44;0.70;;;0.50;;
43696;SDS011;29301;47.620;19.560;2023-04-25T07:56:11;0.70;;;0.50;;
43696;SDS011;29301;47.620;19.560;2023-04-25T07:58:37;0.80;;;0.50;;
43696;SDS011;29301;47.620;19.560;2023-04-25T08:01:02;0.70;;;0.50;;
43696;SDS011;29301;47.620;19.560;2023-04-25T08:03:28;0.70;;;0.40;;
43696;SDS011;29301;47.620;19.560;2023-04-25T08:05:54;0.70;;;0.40;;
43696;SDS011;29301;47.620;19.560;2023-04-25T08:08:20;0.73;;;0.50;;
43696;SDS011;29301;47.620;19.560;2023-04-25T08:10:46;0.70;;;0.40;;
43696;SDS011;29301;47.620;19.560;2023-04-25T08:13:13;0.70;;;0.50;;
43696;SDS011;29301;47.620;19.560;2023-04-25T08:15:38;0.70;;;0.50;;
43696;SDS011;29301;47.620;19.560;2023-04-25T08:18:04;0.70;;;0.47;;
43696;SDS011;29301;47.620;19.560;2023-04-25T08:20:30;0.70;;;0.50;;
43696;SDS011;29301;47.620;19.560;2023-04-25T08:22:56;0.70;;;0.50;;
43696;SDS011;29301;47.620;19.560;2023-04-25T08:25:22;0.68;;;0.40;;
43696;SDS011;29301;47.620;19.560;2023-04-25T08:27:47;0.60;;;0.40;;
43696;SDS011;29301;47.620;19.560;2023-04-25T08:30:13;0.70;;;0.40;;
43696;SDS011;29301;47.620;19.560;2023-04-25T09:04:46;0.70;;;0.40;;
43696;SDS011;29301;47.620;19.560;2023-04-25T09:07:12;0.60;;;0.40;;
43696;SDS011;29301;47.620;19.560;2023-04-25T09:09:40;0.70;;;0.45;;
43696;SDS011;29301;47.620;19.560;2023-04-25T09:12:06;0.70;;;0.40;;
43696;SDS011;29301;47.620;19.560;2023-04-25T09:14:32;0.60;;;0.40;;
43696;SDS011;29301;47.620;19.560;2023-04-25T09:16:59;0.60;;;0.40;;
43696;SDS011;29301;47.620;19.560;2023-04-25T09:19:29;0.52;;;0.40;;
43696;SDS011;29301;47.620;19.560;2023-04-25T09:21:55;0.52;;;0.40;;
43696;SDS011;29301;47.620;19.560;2023-04-25T09:24:42;0.60;;;0.40;;
43696;SDS011;29301;47.620;19.560;2023-04-25T09:27:11;0.70;;;0.40;;
43696;SDS011;29301;47.620;19.560;2023-04-25T09:29:38;0.70;;;0.40;;
43696;SDS011;29301;47.620;19.560;2023-04-25T09:32:16;0.60;;;0.40;;
43696;SDS011;29301;47.620;19.560;2023-04-25T09:34:42;0.70;;;0.43;;
43696;SDS011;29301;47.620;19.560;2023-04-25T09:37:09;0.60;;;0.40;;
43696;SDS011;29301;47.620;19.560;2023-04-25T09:39:39;0.60;;;0.40;;
43696;SDS011;29301;47.620;19.560;2023-04-25T09:42:05;0.68;;;0.40;;
43696;SDS011;29301;47.620;19.560;2023-04-25T09:44:31;0.60;;;0.40;;
43696;SDS011;29301;47.620;19.560;2023-04-25T09:46:57;0.50;;;0.40;;
43696;SDS011;29301;47.620;19.560;2023-04-25T09:49:24;0.60;;;0.40;;
43696;SDS011;29301;47.620;19.560;2023-04-25T09:51:57;0.50;;;0.40;;
43696;SDS011;29301;47.620;19.560;2023-04-25T09:54:24;0.60;;;0.40;;
43696;SDS011;29301;47.620;19.560;2023-04-25T09:56:51;0.45;;;0.30;;
43696;SDS011;29301;47.620;19.560;2023-04-25T09:59:20;0.55;;;0.40;;
43696;SDS011;29301;47.620;19.560;2023-04-25T10:01:49;0.63;;;0.40;;
43696;SDS011;29301;47.620;19.560;2023-04-25T10:04:19;0.40;;;0.40;;
43696;SDS011;29301;47.620;19.560;2023-04-25T10:06:46;0.55;;;0.43;;
43696;SDS011;29301;47.620;19.560;2023-04-25T10:09:14;0.40;;;0.30;;
43696;SDS011;29301;47.620;19.560;2023-04-25T10:11:40;0.40;;;0.30;;
43696;SDS011;29301;47.620;19.560;2023-04-25T10:14:06;0.50;;;0.40;;
43696;SDS011;29301;47.620;19.560;2023-04-25T10:16:32;0.40;;;0.30;;
43696;SDS011;29301;47.620;19.560;2023-04-25T10:18:58;0.50;;;0.40;;
43696;SDS011;29301;47.620;19.560;2023-04-25T10:21:24;0.50;;;0.40;;
43696;SDS011;29301;47.620;19.560;2023-04-25T10:23:53;0.50;;;0.40;;
43696;SDS011;29301;47.620;19.560;2023-04-25T10:26:19;0.45;;;0.40;;
43696;SDS011;29301;47.620;19.560;2023-04-25T10:28:59;0.50;;;0.40;;
43696;SDS011;29301;47.620;19.560;2023-04-25T10:31:27;0.55;;;0.40;;
43696;SDS011;29301;47.620;19.560;2023-04-25T10:33:55;0.50;;;0.40;;
43696;SDS011;29301;47.620;19.560;2023-04-25T10:36:22;0.57;;;0.40;;
43696;SDS011;29301;47.620;19.560;2023-04-25T10:38:49;0.55;;;0.40;;
43696;SDS011;29301;47.620;19.560;2023-04-25T10:41:20;0.50;;;0.40;;
43696;SDS011;29301;47.620;19.560;2023-04-25T10:43:48;0.45;;;0.40;;
43696;SDS011;29301;47.620;19.560;2023-04-25T10:51:21;0.50;;;0.40;;
43696;SDS011;29301;47.620;19.560;2023-04-25T10:59:15;0.60;;;0.45;;
43696;SDS011;29301;47.620;19.560;2023-04-25T11:01:42;0.55;;;0.40;;
43696;SDS011;29301;47.620;19.560;2023-04-25T11:09:36;0.50;;;0.40;;
43696;SDS011;29301;47.620;19.560;2023-04-25T11:12:04;0.60;;;0.40;;
43696;SDS011;29301;47.620;19.560;2023-04-25T11:14:32;0.40;;;0.40;;
43696;SDS011;29301;47.620;19.560;2023-04-25T11:16:58;0.40;;;0.40;;
43696;SDS011;29301;47.620;19.560;2023-04-25T11:19:24;0.60;;;0.40;;
43696;SDS011;29301;47.620;19.560;2023-04-25T11:21:54;0.50;;;0.40;;
43696;SDS011;29301;47.620;19.560;2023-04-25T11:24:25;0.50;;;0.40;;
43696;SDS011;29301;47.620;19.560;2023-04-25T11:26:52;0.47;;;0.40;;
43696;SDS011;29301;47.620;19.560;2023-04-25T11:29:18;0.47;;;0.40;;
43696;SDS011;29301;47.620;19.560;2023-04-25T11:31:46;0.50;;;0.40;;
43696;SDS011;29301;47.620;19.560;2023-04-25T11:34:16;0.50;;;0.40;;
43696;SDS011;29301;47.620;19.560;2023-04-25T11:36:45;0.60;;;0.45;;
43696;SDS011;29301;47.620;19.560;2023-04-25T11:39:11;0.50;;;0.40;;
43696;SDS011;29301;47.620;19.560;2023-04-25T11:41:38;0.50;;;0.40;;
43696;SDS011;29301;47.620;19.560;2023-04-25T11:44:04;0.45;;;0.40;;
43696;SDS011;29301;47.620;19.560;2023-04-25T11:46:30;0.50;;;0.40;;
43696;SDS011;29301;47.620;19.560;2023-04-25T11:48:59;0.43;;;0.40;;
43696;SDS011;29301;47.620;19.560;2023-04-25T11:51:25;0.60;;;0.40;;
43696;SDS011;29301;47.620;19.560;2023-04-25T11:53:51;0.52;;;0.40;;
43696;SDS011;29301;47.620;19.560;2023-04-25T11:56:16;0.50;;;0.40;;
43696;SDS011;29301;47.620;19.560;2023-04-25T11:58:55;0.60;;;0.40;;
43696;SDS011;29301;47.620;19.560;2023-04-25T12:01:31;0.70;;;0.40;;
43696;SDS011;29301;47.620;19.560;2023-04-25T12:03:58;0.80;;;0.50;;
43696;SDS011;29301;47.620;19.560;2023-04-25T12:06:30;0.70;;;0.50;;
43696;SDS011;29301;47.620;19.560;2023-04-25T12:09:03;0.65;;;0.40;;
43696;SDS011;29301;47.620;19.560;2023-04-25T12:11:32;0.70;;;0.50;;
43696;SDS011;29301;47.620;19.560;2023-04-25T12:14:06;0.50;;;0.40;;
43696;SDS011;29301;47.620;19.560;2023-04-25T12:19:14;0.68;;;0.47;;
43696;SDS011;29301;47.620;19.560;2023-04-25T12:21:41;0.43;;;0.40;;
43696;SDS011;29301;47.620;19.560;2023-04-25T12:24:14;0.80;;;0.50;;
43696;SDS011;29301;47.620;19.560;2023-04-25T12:29:34;0.65;;;0.40;;
43696;SDS011;29301;47.620;19.560;2023-04-25T12:31:59;0.63;;;0.50;;
43696;SDS011;29301;47.620;19.560;2023-04-25T12:34:26;0.60;;;0.40;;
43696;SDS011;29301;47.620;19.560;2023-04-25T12:36:52;0.50;;;0.40;;
43696;SDS011;29301;47.620;19.560;2023-04-25T12:39:21;0.60;;;0.40;;
43696;SDS011;29301;47.620;19.560;2023-04-25T12:41:49;0.50;;;0.40;;
43696;SDS011;29301;47.620;19.560;2023-04-25T12:44:15;0.50;;;0.40;;
43696;SDS011;29301;47.620;19.560;2023-04-25T12:46:42;0.50;;;0.40;;
43696;SDS011;29301;47.620;19.560;2023-04-25T12:49:07;0.68;;;0.47;;
43696;SDS011;29301;47.620;19.560;2023-04-25T12:51:33;0.60;;;0.40;;
43696;SDS011;29301;47.620;19.560;2023-04-25T12:54:00;0.60;;;0.43;;
43696;SDS011;29301;47.620;19.560;2023-04-25T12:56:27;0.70;;;0.50;;
43696;SDS011;29301;47.620;19.560;2023-04-25T12:58:53;0.60;;;0.40;;
43696;SDS011;29301;47.620;19.560;2023-04-25T13:01:19;0.50;;;0.40;;
43696;SDS011;29301;47.620;19.560;2023-04-25T13:03:45;0.40;;;0.40;;
43696;SDS011;29301;47.620;19.560;2023-04-25T13:06:12;0.60;;;0.40;;
43696;SDS011;29301;47.620;19.560;2023-04-25T13:08:38;0.50;;;0.40;;
43696;SDS011;29301;47.620;19.560;2023-04-25T13:11:06;0.40;;;0.40;;
43696;SDS011;29301;47.620;19.560;2023-04-25T13:13:31;0.50;;;0.40;;
43696;SDS011;29301;47.620;19.560;2023-04-25T13:15:59;0.52;;;0.40;;
43696;SDS011;29301;47.620;19.560;2023-04-25T13:18:25;0.40;;;0.30;;
43696;SDS011;29301;47.620;19.560;2023-04-25T13:20:54;0.60;;;0.40;;
43696;SDS011;29301;47.620;19.560;2023-04-25T13:23:20;0.60;;;0.50;;
43696;SDS011;29301;47.620;19.560;2023-04-25T13:25:47;0.50;;;0.40;;
43696;SDS011;29301;47.620;19.560;2023-04-25T13:28:13;0.50;;;0.40;;
43696;SDS011;29301;47.620;19.560;2023-04-25T13:30:39;0.50;;;0.40;;
43696;SDS011;29301;47.620;19.560;2023-04-25T13:33:05;0.50;;;0.40;;
43696;SDS011;29301;47.620;19.560;2023-04-25T13:35:31;0.50;;;0.40;;
43696;SDS011;29301;47.620;19.560;2023-04-25T13:37:59;0.50;;;0.40;;
43696;SDS011;29301;47.620;19.560;2023-04-25T13:40:25;0.50;;;0.40;;
43696;SDS011;29301;47.620;19.560;2023-04-25T13:42:52;0.50;;;0.40;;
43696;SDS011;29301;47.620;19.560;2023-04-25T13:45:18;0.50;;;0.40;;
43696;SDS011;29301;47.620;19.560;2023-04-25T13:47:44;0.40;;;0.30;;
43696;SDS011;29301;47.620;19.560;2023-04-25T13:50:10;0.70;;;0.50;;
43696;SDS011;29301;47.620;19.560;2023-04-25T13:52:36;0.60;;;0.40;;
43696;SDS011;29301;47.620;19.560;2023-04-25T13:55:02;0.50;;;0.40;;
43696;SDS011;29301;47.620;19.560;2023-04-25T13:57:30;0.60;;;0.40;;
43696;SDS011;29301;47.620;19.560;2023-04-25T13:59:56;0.45;;;0.40;;
43696;SDS011;29301;47.620;19.560;2023-04-25T14:02:21;0.40;;;0.40;;
43696;SDS011;29301;47.620;19.560;2023-04-25T14:04:47;0.40;;;0.30;;
43696;SDS011;29301;47.620;19.560;2023-04-25T14:07:13;0.60;;;0.40;;
43696;SDS011;29301;47.620;19.560;2023-04-25T14:09:42;0.50;;;0.40;;
43696;SDS011;29301;47.620;19.560;2023-04-25T14:12:09;0.45;;;0.30;;
43696;SDS011;29301;47.620;19.560;2023-04-25T14:14:35;0.40;;;0.32;;
43696;SDS011;29301;47.620;19.560;2023-04-25T14:17:00;0.50;;;0.40;;
43696;SDS011;29301;47.620;19.560;2023-04-25T14:19:26;0.60;;;0.45;;
43696;SDS011;29301;47.620;19.560;2023-04-25T14:21:53;0.45;;;0.30;;
43696;SDS011;29301;47.620;19.560;2023-04-25T14:24:19;0.43;;;0.40;;
43696;SDS011;29301;47.620;19.560;2023-04-25T14:26:45;0.50;;;0.40;;
43696;SDS011;29301;47.620;19.560;2023-04-25T14:29:11;0.40;;;0.30;;
43696;SDS011;29301;47.620;19.560;2023-04-25T14:31:37;0.40;;;0.40;;
43696;SDS011;29301;47.620;19.560;2023-04-25T14:34:06;0.50;;;0.40;;
43696;SDS011;29301;47.620;19.560;2023-04-25T14:36:33;0.70;;;0.50;;
43696;SDS011;29301;47.620;19.560;2023-04-25T14:38:59;0.55;;;0.40;;
43696;SDS011;29301;47.620;19.560;2023-04-25T14:41:25;0.60;;;0.40;;
43696;SDS011;29301;47.620;19.560;2023-04-25T14:43:51;0.50;;;0.40;;
43696;SDS011;29301;47.620;19.560;2023-04-25T14:46:18;0.40;;;0.40;;
43696;SDS011;29301;47.620;19.560;2023-04-25T14:48:45;0.40;;;0.40;;
43696;SDS011;29301;47.620;19.560;2023-04-25T14:51:10;0.50;;;0.40;;
43696;SDS011;29301;47.620;19.560;2023-04-25T14:53:36;0.43;;;0.40;;
43696;SDS011;29301;47.620;19.560;2023-04-25T14:56:07;0.40;;;0.40;;
43696;SDS011;29301;47.620;19.560;2023-04-25T14:58:34;0.40;;;0.30;;
43696;SDS011;29301;47.620;19.560;2023-04-25T15:01:00;0.40;;;0.32;;
43696;SDS011;29301;47.620;19.560;2023-04-25T15:03:26;0.40;;;0.40;;
43696;SDS011;29301;47.620;19.560;2023-04-25T15:05:55;0.40;;;0.40;;
43696;SDS011;29301;47.620;19.560;2023-04-25T15:08:21;0.45;;;0.40;;
43696;SDS011;29301;47.620;19.560;2023-04-25T15:10:46;0.40;;;0.30;;
43696;SDS011;29301;47.620;19.560;2023-04-25T15:13:12;0.40;;;0.40;;
43696;SDS011;29301;47.620;19.560;2023-04-25T15:15:38;0.40;;;0.30;;
43696;SDS011;29301;47.620;19.560;2023-04-25T15:18:05;0.50;;;0.40;;
43696;SDS011;29301;47.620;19.560;2023-04-25T15:20:31;0.40;;;0.30;;
43696;SDS011;29301;47.620;19.560;2023-04-25T15:22:57;0.47;;;0.40;;
43696;SDS011;29301;47.620;19.560;2023-04-25T15:25:23;0.40;;;0.40;;
43696;SDS011;29301;47.620;19.560;2023-04-25T15:27:49;0.50;;;0.40;;
43696;SDS011;29301;47.620;19.560;2023-04-25T15:30:16;0.50;;;0.40;;
43696;SDS011;29301;47.620;19.560;2023-04-25T15:32:43;0.50;;;0.40;;
43696;SDS011;29301;47.620;19.560;2023-04-25T15:35:10;0.40;;;0.40;;
43696;SDS011;29301;47.620;19.560;2023-04-25T15:37:36;0.50;;;0.40;;
43696;SDS011;29301;47.620;19.560;2023-04-25T15:40:10;0.40;;;0.30;;
43696;SDS011;29301;47.620;19.560;2023-04-25T15:42:39;0.40;;;0.40;;
43696;SDS011;29301;47.620;19.560;2023-04-25T15:45:16;0.50;;;0.40;;
43696;SDS011;29301;47.620;19.560;2023-04-25T15:47:42;0.50;;;0.40;;
43696;SDS011;29301;47.620;19.560;2023-04-25T15:50:09;0.50;;;0.40;;
43696;SDS011;29301;47.620;19.560;2023-04-25T15:52:38;0.50;;;0.40;;
43696;SDS011;29301;47.620;19.560;2023-04-25T15:55:06;0.40;;;0.40;;
43696;SDS011;29301;47.620;19.560;2023-04-25T15:57:33;0.38;;;0.38;;
43696;SDS011;29301;47.620;19.560;2023-04-25T16:00:00;0.40;;;0.35;;
43696;SDS011;29301;47.620;19.560;2023-04-25T16:02:29;0.40;;;0.32;;
43696;SDS011;29301;47.620;19.560;2023-04-25T16:04:55;0.40;;;0.32;;
43696;SDS011;29301;47.620;19.560;2023-04-25T16:07:20;0.40;;;0.38;;
43696;SDS011;29301;47.620;19.560;2023-04-25T16:09:47;0.40;;;0.40;;
43696;SDS011;29301;47.620;19.560;2023-04-25T16:12:12;0.43;;;0.40;;
43696;SDS011;29301;47.620;19.560;2023-04-25T16:14:39;0.52;;;0.40;;
43696;SDS011;29301;47.620;19.560;2023-04-25T16:17:05;0.60;;;0.45;;
43696;SDS011;29301;47.620;19.560;2023-04-25T16:19:31;1.02;;;0.70;;
43696;SDS011;29301;47.620;19.560;2023-04-25T16:21:57;1.17;;;0.77;;
43696;SDS011;29301;47.620;19.560;2023-04-25T16:24:22;0.85;;;0.63;;
43696;SDS011;29301;47.620;19.560;2023-04-25T16:26:48;0.88;;;0.60;;
43696;SDS011;29301;47.620;19.560;2023-04-25T16:29:14;0.82;;;0.60;;
43696;SDS011;29301;47.620;19.560;2023-04-25T16:31:41;0.60;;;0.40;;
43696;SDS011;29301;47.620;19.560;2023-04-25T16:34:07;0.43;;;0.40;;
43696;SDS011;29301;47.620;19.560;2023-04-25T16:36:33;0.50;;;0.40;;
43696;SDS011;29301;47.620;19.560;2023-04-25T16:38:59;0.57;;;0.40;;
43696;SDS011;29301;47.620;19.560;2023-04-25T16:41:26;0.40;;;0.30;;